Time;durP1;ratioP1;P1;durP2;ratioP2;P2;SDS_P1;SDS_P2;PMS_P1;PMS_P2;Temp;Humidity;BMP_temperature;BMP_pressure;BME280_temperature;BME280_humidity;BME280_pressure;Samples;Min_cycle;Max_cycle;Signal;HPM_P1;HPM_P2
2023/10/15 00:01:27;;;;;;;6.68;1.08;;;;;;;9.12;100.00;101595.59;5023052;28;20072;-48
2023/10/15 00:03:53;;;;;;;8.80;1.35;;;;;;;9.54;100.00;101683.44;5035293;28;20062;-48
2023/10/15 00:06:18;;;;;;;7.10;1.23;;;;;;;9.08;100.00;101606.19;5017132;28;20034;-47
2023/10/15 00:08:43;;;;;;;9.00;1.52;;;;;;;9.44;100.00;101687.06;5030496;28;20124;-47
2023/10/15 00:11:18;;;;;;;5.85;1.20;;;;;;;9.39;100.00;101681.03;4999910;28;20037;-49
2023/10/15 00:13:44;;;;;;;6.22;1.35;;;;;;;9.20;100.00;101662.00;5019900;28;20092;-50
2023/10/15 00:16:19;;;;;;;9.40;1.38;;;;;;;9.14;100.00;101651.59;5008021;28;20059;-49
2023/10/15 00:18:44;;;;;;;6.57;1.25;;;;;;;8.74;100.00;101604.00;5025589;28;20130;-53
2023/10/15 00:21:13;;;;;;;4.68;1.00;;;;;;;8.76;100.00;101603.94;5031771;28;20484;-49
2023/10/15 00:23:44;;;;;;;7.07;1.52;;;;;;;9.16;100.00;101662.09;5019168;28;20021;-49
2023/10/15 00:26:13;;;;;;;6.20;1.42;;;;;;;8.82;100.00;101610.00;5025522;28;20380;-51
2023/10/15 00:28:39;;;;;;;8.00;1.40;;;;;;;9.17;100.00;101672.56;5027009;28;20056;-48
2023/10/15 00:31:09;;;;;;;7.40;1.10;;;;;;;8.70;100.00;101572.56;4998033;28;20121;-48
2023/10/15 00:33:35;;;;;;;10.10;1.77;;;;;;;9.21;100.00;101657.63;5015511;28;20038;-52
2023/10/15 00:36:01;;;;;;;5.65;1.05;;;;;;;9.20;100.00;101666.38;5026478;28;20407;-50
2023/10/15 00:38:26;;;;;;;7.03;1.65;;;;;;;8.86;100.00;101632.72;5019491;28;20045;-48
2023/10/15 00:41:00;;;;;;;10.75;2.90;;;;;;;9.10;100.00;101683.19;5026265;28;20045;-54
2023/10/15 00:43:30;;;;;;;10.82;1.90;;;;;;;8.66;100.00;101623.34;5027679;28;20037;-53
2023/10/15 00:45:55;;;;;;;10.43;2.33;;;;;;;8.86;100.00;101713.22;5018140;28;20033;-54
2023/10/15 00:48:24;;;;;;;11.95;1.60;;;;;;;8.24;100.00;101646.50;5029122;28;20049;-52
2023/10/15 00:50:51;;;;;;;12.85;2.15;;;;;;;8.47;100.00;101698.78;5031119;28;20046;-52
2023/10/15 00:53:22;;;;;;;17.77;4.13;;;;;;;8.14;100.00;101696.44;5012799;28;20061;-53
2023/10/15 00:55:51;;;;;;;11.65;3.00;;;;;;;7.82;100.00;101702.81;5013406;28;20037;-51
2023/10/15 01:01:00;;;;;;;9.73;2.42;;;;;;;7.11;100.00;101643.03;5038698;28;20477;-52
2023/10/15 01:03:32;;;;;;;9.73;1.65;;;;;;;7.04;100.00;101628.22;5020404;28;20481;-53
2023/10/15 01:06:04;;;;;;;10.32;2.70;;;;;;;7.19;100.00;101648.22;5024148;28;20042;-53
2023/10/15 01:08:37;;;;;;;9.07;2.63;;;;;;;7.10;100.00;101632.56;5006362;28;20045;-50
2023/10/15 01:11:08;;;;;;;8.77;2.05;;;;;;;6.79;100.00;101576.91;5035719;28;20038;-48
2023/10/15 01:13:34;;;;;;;7.32;1.60;;;;;;;6.95;100.00;101604.72;5014338;28;20049;-54
2023/10/15 01:16:03;;;;;;;9.15;2.13;;;;;;;7.04;100.00;101628.22;5027359;28;20037;-54
2023/10/15 01:18:29;;;;;;;11.10;2.67;;;;;;;7.48;100.00;101703.91;5017409;28;20041;-52
2023/10/15 01:20:54;;;;;;;6.63;3.03;;;;;;;7.12;100.00;101654.38;5029571;28;20551;-52
2023/10/15 01:23:28;;;;;;;11.45;2.55;;;;;;;7.48;100.00;101716.13;5021519;28;20424;-49
2023/10/15 01:25:57;;;;;;;7.25;1.90;;;;;;;7.43;100.00;101696.97;5021090;28;20386;-53
2023/10/15 01:28:30;;;;;;;6.18;1.95;;;;;;;7.49;100.00;101686.44;5045615;28;20145;-48
2023/10/15 01:31:00;;;;;;;6.22;1.60;;;;;;;7.50;100.00;101680.34;5003353;28;20112;-50
2023/10/15 01:33:28;;;;;;;9.63;1.70;;;;;;;7.58;100.00;101674.16;5025833;28;20656;-48
2023/10/15 01:35:53;;;;;;;12.95;3.45;;;;;;;7.58;100.00;101673.28;5028547;28;20401;-48
2023/10/15 01:38:26;;;;;;;9.27;1.98;;;;;;;7.52;100.00;101670.72;5015748;28;20084;-52
2023/10/15 01:40:56;;;;;;;10.98;1.90;;;;;;;7.03;100.00;101605.56;5027905;28;20491;-57
2023/10/15 01:43:22;;;;;;;9.65;1.80;;;;;;;7.38;100.00;101662.97;5005819;28;20030;-50
2023/10/15 01:45:48;;;;;;;5.88;2.03;;;;;;;7.37;100.00;101663.81;5027427;28;20065;-51
2023/10/15 01:48:17;;;;;;;8.82;1.95;;;;;;;7.00;100.00;101600.34;5022414;28;20467;-51
2023/10/15 01:50:51;;;;;;;8.05;2.25;;;;;;;7.43;100.00;101655.06;5019515;28;20037;-48
2023/10/15 01:53:23;;;;;;;8.80;2.22;;;;;;;7.45;100.00;101663.75;5024220;28;20038;-50
2023/10/15 01:55:59;;;;;;;6.38;1.73;;;;;;;7.10;100.00;101607.25;5025912;28;20068;-51
2023/10/15 01:58:30;;;;;;;20.15;3.05;;;;;;;7.45;100.00;101677.72;5024538;28;20033;-52
2023/10/15 02:00:56;;;;;;;5.85;1.85;;;;;;;7.38;100.00;101653.31;5024198;28;20397;-54
2023/10/15 02:03:21;;;;;;;6.75;2.28;;;;;;;7.40;100.00;101650.72;5029349;28;20026;-53
2023/10/15 02:05:46;;;;;;;6.38;1.75;;;;;;;7.15;100.00;101592.38;5028379;28;20038;-53
2023/10/15 02:08:16;;;;;;;7.90;2.00;;;;;;;7.11;100.00;101593.28;5022582;28;20072;-51
2023/10/15 02:10:46;;;;;;;7.82;1.70;;;;;;;7.48;100.00;101656.75;5032103;28;20060;-49
2023/10/15 02:13:16;;;;;;;6.07;1.75;;;;;;;7.46;100.00;101652.41;5006676;28;20065;-51
2023/10/15 02:15:42;;;;;;;3.60;1.27;;;;;;;7.51;100.00;101671.59;5021975;28;20030;-50
2023/10/15 02:18:13;;;;;;;10.35;2.00;;;;;;;7.59;100.00;101722.22;5018611;28;20041;-49
2023/10/15 02:20:45;;;;;;;5.95;1.67;;;;;;;7.58;100.00;101715.22;5026410;28;20500;-56
2023/10/15 02:23:11;;;;;;;5.72;1.55;;;;;;;7.69;100.00;101735.22;5023409;28;20033;-51
2023/10/15 02:25:44;;;;;;;5.43;1.23;;;;;;;7.68;100.00;101741.34;5018626;28;20042;-55
2023/10/15 02:28:10;;;;;;;5.50;1.00;;;;;;;7.69;100.00;101723.88;5029097;28;20060;-54
2023/10/15 02:30:36;;;;;;;3.10;0.75;;;;;;;7.55;100.00;101736.19;5011762;28;20046;-48
2023/10/15 02:33:01;;;;;;;4.05;1.05;;;;;;;7.43;100.00;101692.59;5012714;28;20392;-52
2023/10/15 02:35:39;;;;;;;2.95;1.15;;;;;;;7.44;100.00;101686.50;5018212;28;20040;-52
2023/10/15 02:38:10;;;;;;;2.35;0.85;;;;;;;6.98;100.00;101622.16;5014684;28;20033;-52
2023/10/15 02:40:56;;;;;;;1.58;0.68;;;;;;;7.35;100.00;101683.94;5011515;28;20421;-52
2023/10/15 02:43:24;;;;;;;2.72;0.70;;;;;;;7.38;100.00;101685.66;5003675;28;20036;-52
2023/10/15 02:45:50;;;;;;;3.80;0.93;;;;;;;7.39;100.00;101683.00;5023018;28;20421;-51
2023/10/15 02:48:19;;;;;;;2.55;1.10;;;;;;;7.34;100.00;101650.75;5027861;28;20131;-49
2023/10/15 02:50:58;;;;;;;2.33;0.65;;;;;;;7.10;100.00;101596.78;5008708;28;20042;-50
2023/10/15 02:53:26;;;;;;;2.08;0.88;;;;;;;7.16;100.00;101617.69;5026724;28;20057;-50
2023/10/15 02:55:52;;;;;;;2.05;0.80;;;;;;;7.17;100.00;101588.03;5021755;28;20049;-49
2023/10/15 02:58:17;;;;;;;3.30;0.75;;;;;;;7.48;100.00;101654.13;5019559;28;20130;-51
2023/10/15 03:00:42;;;;;;;1.63;0.90;;;;;;;7.18;100.00;101613.31;5027284;28;20124;-53
2023/10/15 03:03:09;;;;;;;2.45;0.45;;;;;;;7.34;100.00;101650.75;5028616;28;20101;-51
2023/10/15 03:05:41;;;;;;;0.55;0.40;;;;;;;7.08;100.00;101611.63;5027421;28;20037;-51
2023/10/15 03:08:06;;;;;;;1.67;0.70;;;;;;;7.45;100.00;101669.88;5021869;28;20048;-48
2023/10/15 03:10:56;;;;;;;4.47;0.80;;;;;;;6.97;100.00;101589.03;5031511;28;20030;-50
2023/10/15 03:13:21;;;;;;;1.55;0.73;;;;;;;7.36;100.00;101644.63;5021357;28;20492;-52
2023/10/15 03:15:49;;;;;;;3.03;0.80;;;;;;;7.03;100.00;101616.03;5021094;28;20041;-49
2023/10/15 03:18:24;;;;;;;5.25;1.33;;;;;;;7.04;100.00;101625.59;5026547;28;20040;-49
2023/10/15 03:21:00;;;;;;;2.85;0.82;;;;;;;7.41;100.00;101698.72;5017151;28;20060;-50
2023/10/15 03:23:25;;;;;;;2.58;0.80;;;;;;;7.48;100.00;101708.28;5027156;28;20048;-52
2023/10/15 03:25:58;;;;;;;1.92;0.82;;;;;;;7.15;100.00;101663.06;5019622;28;20037;-47
2023/10/15 03:28:26;;;;;;;4.78;1.27;;;;;;;7.55;100.00;101712.63;5018607;28;20042;-47
2023/10/15 03:30:54;;;;;;;2.13;0.90;;;;;;;7.55;100.00;101700.38;5032624;28;20374;-49
2023/10/15 03:33:22;;;;;;;2.25;1.08;;;;;;;7.58;100.00;101702.13;5020329;28;20050;-48
2023/10/15 03:35:54;;;;;;;8.23;1.55;;;;;;;7.23;100.00;101652.56;5020567;28;20061;-49
2023/10/15 03:38:23;;;;;;;6.28;1.05;;;;;;;7.62;100.00;101720.41;5031382;28;20041;-49
2023/10/15 03:41:06;;;;;;;5.60;1.50;;;;;;;7.65;100.00;101724.75;5013614;28;20037;-50
2023/10/15 03:43:34;;;;;;;3.42;1.10;;;;;;;7.64;100.00;101710.81;5017313;28;20112;-47
2023/10/15 03:46:09;;;;;;;3.35;0.82;;;;;;;7.21;100.00;101652.56;5031938;28;20400;-49
2023/10/15 03:48:41;;;;;;;5.55;1.33;;;;;;;7.54;100.00;101697.75;5022031;28;20045;-50
2023/10/15 03:51:15;;;;;;;2.95;0.85;;;;;;;7.26;100.00;101658.66;5039245;28;20038;-47
2023/10/15 03:53:41;;;;;;;6.57;0.80;;;;;;;7.13;100.00;101651.75;5031354;28;20387;-50
2023/10/15 03:56:08;;;;;;;5.05;0.95;;;;;;;7.30;100.00;101704.88;5034274;28;20480;-48
2023/10/15 03:58:33;;;;;;;5.57;0.85;;;;;;;7.24;100.00;101710.16;5028919;28;20468;-48
2023/10/15 04:01:13;;;;;;;3.50;1.17;;;;;;;6.74;100.00;101651.94;5026552;28;20117;-48
2023/10/15 04:03:42;;;;;;;2.58;1.10;;;;;;;6.97;100.00;101717.28;5019924;28;20107;-51
2023/10/15 04:06:07;;;;;;;7.10;1.10;;;;;;;6.86;100.00;101716.44;5015543;28;20026;-49
2023/10/15 04:08:33;;;;;;;2.95;1.25;;;;;;;6.80;100.00;101715.56;5014142;28;20041;-49
2023/10/15 04:10:58;;;;;;;6.35;0.98;;;;;;;6.57;100.00;101675.53;5014683;28;20030;-47
2023/10/15 04:13:27;;;;;;;3.75;0.95;;;;;;;6.36;100.00;101623.28;5015506;28;20137;-49
2023/10/15 04:15:54;;;;;;;10.77;1.40;;;;;;;6.88;100.00;101705.09;5002797;28;20034;-51
2023/10/15 04:18:23;;;;;;;6.47;1.40;;;;;;;6.55;100.00;101626.69;5042747;28;20100;-49
2023/10/15 04:20:49;;;;;;;5.93;1.70;;;;;;;7.01;100.00;101696.28;5031635;28;20037;-49
2023/10/15 04:23:21;;;;;;;7.93;1.70;;;;;;;7.04;100.00;101703.25;5014108;28;20041;-49
2023/10/15 04:25:47;;;;;;;7.88;1.65;;;;;;;6.71;100.00;101637.09;5026264;28;20084;-47
2023/10/15 04:28:18;;;;;;;7.90;1.20;;;;;;;7.09;100.00;101694.50;5019969;28;20489;-49
2023/10/15 04:30:46;;;;;;;8.27;1.95;;;;;;;6.80;100.00;101637.06;5020525;28;20064;-48
2023/10/15 04:33:13;;;;;;;7.97;2.03;;;;;;;6.82;100.00;101625.72;5013361;28;20061;-49
2023/10/15 04:35:40;;;;;;;6.85;1.65;;;;;;;7.29;100.00;101699.66;5017174;28;20109;-49
2023/10/15 04:38:08;;;;;;;13.65;2.08;;;;;;;7.34;100.00;101726.69;5028849;28;20037;-49
2023/10/15 04:43:15;;;;;;;;;;;;;;;7.56;100.00;101737.94;5016259;28;20042;-50
2023/10/15 04:45:44;;;;;;;8.73;1.33;;;;;;;7.75;100.00;101734.31;5043625;28;20279;-47
2023/10/15 04:48:14;;;;;;;10.10;2.42;;;;;;;7.34;100.00;101666.47;5032768;28;20127;-50
2023/10/15 04:50:40;;;;;;;6.80;1.80;;;;;;;7.85;100.00;101742.09;5008835;28;20530;-47
2023/10/15 04:53:23;;;;;;;9.88;1.73;;;;;;;7.87;100.00;101732.50;5040791;28;20499;-52
2023/10/15 04:55:51;;;;;;;6.18;1.60;;;;;;;7.42;100.00;101661.16;5042376;28;20033;-47
2023/10/15 04:58:17;;;;;;;7.25;1.75;;;;;;;7.71;100.00;101727.34;5033265;28;20125;-49
2023/10/15 05:00:44;;;;;;;5.75;1.02;;;;;;;7.60;100.00;101719.56;5021857;28;20108;-49
2023/10/15 05:03:10;;;;;;;5.53;1.40;;;;;;;6.96;100.00;101623.91;5022252;28;20068;-49
2023/10/15 05:05:36;;;;;;;6.28;1.25;;;;;;;7.57;100.00;101739.66;5028494;28;20484;-47
2023/10/15 05:08:02;;;;;;;5.18;1.20;;;;;;;7.47;100.00;101735.38;5013479;28;20048;-49
2023/10/15 05:10:29;;;;;;;5.40;1.38;;;;;;;7.62;100.00;101756.22;5031861;28;20118;-48
2023/10/15 05:12:55;;;;;;;3.13;0.95;;;;;;;7.21;100.00;101686.59;5026825;28;20080;-47
2023/10/15 05:15:20;;;;;;;7.32;1.48;;;;;;;7.61;100.00;101757.13;5025222;28;20029;-51
2023/10/15 05:17:47;;;;;;;4.40;1.05;;;;;;;7.64;100.00;101763.22;5010129;28;20049;-49
2023/10/15 05:20:13;;;;;;;5.82;0.90;;;;;;;7.60;100.00;101743.13;5022660;28;20112;-48
2023/10/15 05:22:39;;;;;;;3.05;1.23;;;;;;;7.56;100.00;101735.31;5027397;28;20476;-49
2023/10/15 05:25:05;;;;;;;2.63;1.08;;;;;;;7.47;100.00;101733.63;5020946;28;20065;-47
2023/10/15 05:27:32;;;;;;;6.65;1.33;;;;;;;7.38;100.00;101721.41;5017668;28;20128;-49
2023/10/15 05:29:58;;;;;;;3.05;0.75;;;;;;;7.57;100.00;101748.41;5015538;28;20069;-46
2023/10/15 05:32:24;;;;;;;3.50;1.00;;;;;;;7.43;100.00;101728.41;5024359;28;20029;-47
2023/10/15 05:34:49;;;;;;;4.25;0.85;;;;;;;7.51;100.00;101764.16;5029881;28;20038;-49
2023/10/15 05:37:16;;;;;;;5.03;0.98;;;;;;;7.43;100.00;101754.59;5016175;28;20032;-50
2023/10/15 05:39:41;;;;;;;4.68;1.27;;;;;;;7.36;100.00;101774.69;5015152;28;20060;-48
2023/10/15 05:42:07;;;;;;;2.22;0.90;;;;;;;7.05;100.00;101712.88;5028687;28;20501;-50
2023/10/15 05:44:34;;;;;;;2.25;0.55;;;;;;;7.00;100.00;101697.19;5019869;28;20464;-49
2023/10/15 05:47:00;;;;;;;2.90;1.05;;;;;;;7.37;100.00;101752.88;5012069;28;20064;-50
2023/10/15 05:49:25;;;;;;;6.47;1.05;;;;;;;7.54;100.00;101777.22;5019403;28;20041;-48
2023/10/15 05:51:51;;;;;;;5.60;0.82;;;;;;;7.57;100.00;101782.47;5042837;28;20040;-48
2023/10/15 05:54:17;;;;;;;4.32;1.20;;;;;;;7.18;100.00;101710.19;5030569;28;20034;-47
2023/10/15 05:56:42;;;;;;;6.00;1.15;;;;;;;7.40;100.00;101731.03;5018971;28;20523;-50
2023/10/15 05:59:07;;;;;;;6.38;1.35;;;;;;;7.86;100.00;101793.66;5029672;28;20447;-50
2023/10/15 06:01:33;;;;;;;6.97;1.23;;;;;;;7.61;100.00;101746.63;5018752;28;20046;-51
2023/10/15 06:03:58;;;;;;;6.22;1.25;;;;;;;7.89;100.00;101800.63;5023996;28;20072;-53
2023/10/15 06:06:23;;;;;;;8.57;1.33;;;;;;;7.44;100.00;101733.66;5013106;28;20065;-47
2023/10/15 06:08:49;;;;;;;5.65;0.90;;;;;;;7.76;100.00;101802.44;5012977;28;20552;-47
2023/10/15 06:11:14;;;;;;;2.15;0.70;;;;;;;7.79;100.00;101793.72;5014607;28;20129;-51
2023/10/15 06:13:40;;;;;;;4.13;0.85;;;;;;;7.60;100.00;101758.00;5004203;28;20388;-50
2023/10/15 06:16:05;;;;;;;2.83;0.90;;;;;;;7.76;100.00;101780.63;5015311;28;20030;-53
2023/10/15 06:18:31;;;;;;;4.07;1.35;;;;;;;7.77;100.00;101779.72;5028134;28;20412;-49
2023/10/15 06:20:57;;;;;;;6.22;1.05;;;;;;;7.76;100.00;101791.09;5025220;28;20480;-48
2023/10/15 06:23:23;;;;;;;4.93;1.23;;;;;;;7.43;100.00;101733.63;5016354;28;20038;-49
2023/10/15 06:25:49;;;;;;;5.82;1.00;;;;;;;7.81;100.00;101808.53;5029224;28;20043;-46
2023/10/15 06:28:15;;;;;;;2.28;0.95;;;;;;;7.77;100.00;101804.19;5012620;28;20132;-47
2023/10/15 06:30:41;;;;;;;7.90;1.10;;;;;;;7.69;100.00;101786.75;5015030;28;20044;-51
2023/10/15 06:33:07;;;;;;;7.38;1.65;;;;;;;7.34;100.00;101724.97;5026176;28;20476;-48
2023/10/15 06:35:32;;;;;;;3.92;1.85;;;;;;;7.57;100.00;101763.25;5016010;28;20120;-47
2023/10/15 06:37:57;;;;;;;3.70;1.40;;;;;;;7.86;100.00;101813.75;5027761;28;20116;-47
2023/10/15 06:40:24;;;;;;;5.65;1.42;;;;;;;7.88;100.00;101820.72;5020842;28;20029;-50
2023/10/15 06:43:00;;;;;;;8.50;1.38;;;;;;;7.91;100.00;101830.31;5021230;28;20137;-50
2023/10/15 06:45:25;;;;;;;12.30;3.00;;;;;;;7.50;100.00;101741.44;5015951;28;20120;-48
2023/10/15 06:47:52;;;;;;;12.65;2.55;;;;;;;8.07;100.00;101826.72;5035716;28;20125;-48
2023/10/15 06:50:19;;;;;;;7.60;1.70;;;;;;;8.23;100.00;101828.34;5025353;28;20043;-48
2023/10/15 06:52:44;;;;;;;6.53;1.67;;;;;;;8.04;100.00;101768.19;5015398;28;20093;-49
2023/10/15 06:55:14;;;;;;;4.38;1.23;;;;;;;8.17;100.00;101765.44;5028498;28;20124;-50
2023/10/15 06:57:40;;;;;;;5.88;1.38;;;;;;;8.67;100.00;101833.28;5020300;28;20076;-48
2023/10/15 07:00:07;;;;;;;4.45;1.52;;;;;;;8.51;100.00;101787.06;5021135;28;20025;-48
2023/10/15 07:02:32;;;;;;;7.97;1.83;;;;;;;8.79;100.00;101825.31;5011231;28;20065;-50
2023/10/15 07:05:00;;;;;;;5.40;1.55;;;;;;;9.12;100.00;101857.38;5026979;28;20031;-49
2023/10/15 07:07:26;;;;;;;9.48;1.52;;;;;;;9.08;100.00;101847.81;5012569;28;20041;-51
2023/10/15 07:09:52;;;;;;;9.13;2.10;;;;;;;8.94;100.00;101850.53;5013836;28;20041;-49
2023/10/15 07:12:17;;;;;;;9.70;1.95;;;;;;;8.77;100.00;101858.59;5017400;28;20476;-48
2023/10/15 07:14:43;;;;;;;8.73;2.00;;;;;;;8.34;100.00;101802.97;5031090;28;20117;-51
2023/10/15 07:17:09;;;;;;;10.60;2.30;;;;;;;8.17;100.00;101793.47;5016708;28;20065;-49
2023/10/15 07:19:35;;;;;;;10.10;2.33;;;;;;;8.13;100.00;101810.09;5018536;28;20042;-49
2023/10/15 07:22:00;;;;;;;11.00;1.80;;;;;;;8.49;100.00;101875.44;5017220;28;20030;-50
2023/10/15 07:24:25;;;;;;;9.55;2.03;;;;;;;8.47;100.00;101880.69;5044149;28;20389;-49
2023/10/15 07:26:52;;;;;;;7.43;1.42;;;;;;;8.42;100.00;101881.59;5025549;28;20388;-49
2023/10/15 07:29:18;;;;;;;3.42;1.27;;;;;;;8.17;100.00;101835.41;5018238;28;20061;-52
2023/10/15 07:31:44;;;;;;;7.47;1.70;;;;;;;8.43;100.00;101885.97;5024447;28;20053;-51
2023/10/15 07:34:10;;;;;;;4.60;1.35;;;;;;;8.62;100.00;101916.44;5014525;28;20448;-52
2023/10/15 07:36:36;;;;;;;5.22;1.50;;;;;;;8.67;100.00;101919.06;5012145;28;20046;-50
2023/10/15 07:39:06;;;;;;;7.88;1.40;;;;;;;8.28;100.00;101851.97;5010387;28;20073;-52
2023/10/15 07:41:32;;;;;;;5.57;1.40;;;;;;;8.69;100.00;101930.41;5012155;28;20068;-47
2023/10/15 07:43:57;;;;;;;5.38;1.20;;;;;;;8.75;100.00;101927.72;5026156;28;20531;-48
2023/10/15 07:46:23;;;;;;;5.43;1.25;;;;;;;8.38;100.00;101874.63;5028705;28;20038;-48
2023/10/15 07:48:48;;;;;;;4.97;1.02;;;;;;;8.75;100.00;101936.50;5013501;28;20068;-51
2023/10/15 07:51:15;;;;;;;7.50;1.30;;;;;;;8.79;100.00;101939.94;5026900;28;20117;-46
2023/10/15 07:53:41;;;;;;;6.03;1.40;;;;;;;8.33;100.00;101861.56;5021958;28;20043;-51
2023/10/15 07:56:07;;;;;;;6.80;1.50;;;;;;;8.73;100.00;101929.47;5012142;28;20469;-47
2023/10/15 07:58:32;;;;;;;7.78;1.75;;;;;;;8.71;100.00;101937.38;5025964;28;20038;-48
2023/10/15 08:00:59;;;;;;;4.68;1.58;;;;;;;8.37;100.00;101875.53;5016334;28;20095;-49
2023/10/15 08:03:26;;;;;;;7.80;1.42;;;;;;;8.79;100.00;101940.81;5022620;28;20037;-49
2023/10/15 08:05:51;;;;;;;9.55;1.63;;;;;;;8.87;100.00;101940.78;5026605;28;20042;-50
2023/10/15 08:08:17;;;;;;;4.82;1.13;;;;;;;8.56;100.00;101878.88;5029253;28;20386;-50
2023/10/15 08:10:42;;;;;;;8.65;2.15;;;;;;;8.94;100.00;101943.31;5015895;28;20068;-49
2023/10/15 08:13:08;;;;;;;5.45;1.23;;;;;;;9.01;100.00;101946.78;5010310;28;20077;-49
2023/10/15 08:15:34;;;;;;;9.30;1.55;;;;;;;9.06;100.00;101955.47;5011364;28;20060;-51
2023/10/15 08:18:01;;;;;;;7.68;1.63;;;;;;;9.08;100.00;101969.47;5013985;28;20151;-47
2023/10/15 08:20:27;;;;;;;7.85;1.70;;;;;;;9.09;100.00;101989.59;5031436;28;20395;-52
2023/10/15 08:22:53;;;;;;;11.68;2.60;;;;;;;8.53;100.00;101900.75;5020889;28;20473;-49
2023/10/15 08:25:22;;;;;;;7.95;1.70;;;;;;;8.79;100.00;101969.69;5040235;28;20030;-50
2023/10/15 08:27:47;;;;;;;7.65;1.08;;;;;;;8.29;100.00;101907.03;5028369;28;20092;-48
2023/10/15 08:30:14;;;;;;;3.95;0.75;;;;;;;8.57;100.00;101969.84;5012631;28;20054;-49
2023/10/15 08:32:40;;;;;;;6.35;1.83;;;;;;;8.12;100.00;101893.13;5030600;28;20528;-49
2023/10/15 08:35:08;;;;;;;6.15;2.15;;;;;;;8.49;100.00;101964.66;5020797;28;20043;-49
2023/10/15 08:37:35;;;;;;;3.28;1.10;;;;;;;8.58;100.00;101977.69;5026478;28;20507;-50
2023/10/15 08:40:06;;;;;;;10.57;1.77;;;;;;;8.59;100.00;101968.06;5018910;28;20037;-51
2023/10/15 08:42:54;;;;;;;;;;;;;;;8.82;100.00;101971.41;5006218;28;20037;-48
2023/10/15 08:45:21;;;;;;;10.05;1.45;;;;;;;8.91;100.00;101932.84;5021468;28;20303;-50
2023/10/15 08:47:48;;;;;;;6.85;1.33;;;;;;;9.03;100.00;101922.25;5021983;28;20671;-52
2023/10/15 08:50:16;;;;;;;3.22;0.80;;;;;;;9.54;100.00;101980.44;5013270;28;20046;-50
2023/10/15 08:52:41;;;;;;;4.53;1.30;;;;;;;9.38;100.00;101935.03;5040209;28;20033;-47
2023/10/15 08:55:09;;;;;;;3.67;1.10;;;;;;;9.44;100.00;101921.84;5018855;28;20040;-50
2023/10/15 08:57:35;;;;;;;7.88;1.05;;;;;;;9.87;100.00;101990.59;5045966;28;20120;-49
2023/10/15 09:00:01;;;;;;;7.70;1.20;;;;;;;9.55;100.00;101933.09;5019600;28;20034;-48
2023/10/15 09:02:27;;;;;;;8.48;2.10;;;;;;;9.57;100.00;101997.03;5041052;28;20061;-48
2023/10/15 09:04:53;;;;;;;8.68;1.58;;;;;;;9.01;100.00;101958.16;5019365;28;20074;-47
2023/10/15 09:07:19;;;;;;;9.18;1.50;;;;;;;9.15;100.00;102013.19;5014426;28;20044;-51
2023/10/15 09:09:45;;;;;;;10.32;1.48;;;;;;;9.04;100.00;102018.53;5029183;28;20037;-50
2023/10/15 09:12:13;;;;;;;5.47;1.67;;;;;;;9.02;100.00;102006.28;5017987;28;20075;-50
2023/10/15 09:14:43;;;;;;;4.68;1.25;;;;;;;8.80;100.00;101966.19;5022848;28;20129;-51
2023/10/15 09:17:14;;;;;;;3.15;1.63;;;;;;;8.96;100.00;102001.94;5006585;28;20034;-51
2023/10/15 09:19:41;;;;;;;5.82;1.70;;;;;;;8.62;100.00;101968.06;5026240;28;20584;-52
2023/10/15 09:22:07;;;;;;;6.28;1.75;;;;;;;8.53;100.00;101963.75;5014555;28;20245;-51
2023/10/15 09:24:33;;;;;;;9.30;2.05;;;;;;;8.88;100.00;102042.25;5043144;28;20034;-51
2023/10/15 09:26:58;;;;;;;6.43;1.88;;;;;;;8.84;100.00;102032.69;5022930;28;20029;-52
2023/10/15 09:29:24;;;;;;;7.75;1.40;;;;;;;8.51;100.00;101989.13;5020613;28;20049;-50
2023/10/15 09:31:56;;;;;;;9.38;3.10;;;;;;;8.81;100.00;102044.09;5028912;28;20515;-51
2023/10/15 09:34:21;;;;;;;10.30;1.88;;;;;;;8.89;100.00;102034.41;5012109;28;20400;-52
2023/10/15 09:36:46;;;;;;;4.18;1.20;;;;;;;8.65;100.00;101968.03;5012988;28;20065;-52
2023/10/15 09:39:14;;;;;;;6.80;1.98;;;;;;;9.15;100.00;102052.59;5017354;28;20066;-52
2023/10/15 09:41:43;;;;;;;7.78;2.08;;;;;;;9.27;100.00;102055.13;5018352;28;20057;-51
2023/10/15 09:44:15;;;;;;;3.50;1.33;;;;;;;9.31;100.00;102038.44;5016869;28;20154;-49
2023/10/15 09:46:44;;;;;;;6.60;2.20;;;;;;;9.52;100.00;102061.03;5008070;28;20396;-54
2023/10/15 09:49:10;;;;;;;6.82;1.50;;;;;;;9.66;100.00;102053.06;5018157;28;20106;-49
2023/10/15 09:51:40;;;;;;;5.93;1.63;;;;;;;9.52;100.00;101982.19;5015421;28;20507;-51
2023/10/15 09:54:06;;;;;;;6.82;1.38;;;;;;;10.03;100.00;102051.78;5014528;28;20030;-48
2023/10/15 09:56:34;;;;;;;5.80;1.77;;;;;;;10.08;100.00;102060.50;5012482;28;20639;-49
2023/10/15 09:59:02;;;;;;;9.45;2.03;;;;;;;9.93;100.00;102023.84;5016772;28;20037;-50
2023/10/15 10:01:28;;;;;;;10.88;2.20;;;;;;;10.31;100.00;102105.88;5016418;28;20053;-48
2023/10/15 10:04:15;;;;;;;9.80;1.60;;;;;;;10.31;100.00;102113.78;5018516;28;20065;-49
2023/10/15 10:06:53;;;;;;;5.93;1.52;;;;;;;10.33;100.00;102106.75;5016398;28;20438;-49
2023/10/15 10:09:39;;;;;;;8.13;2.30;;;;;;;10.38;100.00;102112.81;5014308;28;20115;-48
2023/10/15 10:12:26;;;;;;;5.60;1.77;;;;;;;10.78;100.00;102113.19;5010668;28;20432;-50
2023/10/15 10:15:10;;;;;;;4.82;2.53;;;;;;;11.07;100.00;102111.03;5016381;28;20038;-49
2023/10/15 10:17:36;;;;;;;4.35;1.83;;;;;;;11.23;100.00;102120.47;5029379;28;20128;-53
2023/10/15 10:20:10;;;;;;;3.03;1.40;;;;;;;11.26;100.00;102119.56;5015390;28;20116;-50
2023/10/15 10:22:36;;;;;;;6.70;1.58;;;;;;;11.46;100.00;102124.53;5016365;28;20037;-54
2023/10/15 10:25:03;;;;;;;6.88;1.67;;;;;;;11.67;100.00;102116.28;5014526;28;20040;-49
2023/10/15 10:27:40;;;;;;;6.15;2.03;;;;;;;11.70;100.00;102117.09;5017238;28;20098;-50
2023/10/15 10:30:27;;;;;;;5.68;1.38;;;;;;;11.58;100.00;102143.66;5012669;28;20129;-47
2023/10/15 10:32:52;;;;;;;7.60;1.52;;;;;;;11.33;100.00;102113.28;5011496;28;20026;-49
2023/10/15 10:35:18;;;;;;;6.88;1.92;;;;;;;11.49;100.00;102154.34;5018130;28;20405;-50
2023/10/15 10:38:16;;;;;;;6.80;1.20;;;;;;;11.38;100.00;102156.28;5011284;28;20038;-50
2023/10/15 10:40:52;;;;;;;4.90;1.52;;;;;;;11.22;100.00;102160.91;5014059;28;20050;-55
2023/10/15 10:43:19;;;;;;;6.72;1.67;;;;;;;11.22;100.00;102165.28;5025190;28;20374;-48
2023/10/15 10:45:51;;;;;;;6.55;1.52;;;;;;;11.35;100.00;102166.00;5008715;28;20034;-48
2023/10/15 10:48:24;;;;;;;5.75;1.33;;;;;;;12.34;100.00;102148.53;5023505;28;20041;-53
2023/10/15 10:51:08;;;;;;;8.75;1.50;;;;;;;13.80;100.00;102206.19;4999783;28;20025;-52
2023/10/15 10:53:39;;;;;;;3.38;1.17;;;;;;;13.83;100.00;102191.13;5022328;28;20029;-50
2023/10/15 10:56:06;;;;;;;4.60;1.02;;;;;;;13.52;100.00;102200.66;5033515;28;20033;-47
2023/10/15 10:58:34;;;;;;;3.17;1.17;;;;;;;13.13;100.00;102165.44;5028787;28;20037;-48
2023/10/15 11:01:00;;;;;;;3.50;0.73;;;;;;;13.12;100.00;102165.44;5017024;28;20116;-52
2023/10/15 11:03:26;;;;;;;2.40;0.88;;;;;;;14.00;100.00;102206.56;5020330;28;20433;-49
2023/10/15 11:05:58;;;;;;;6.30;1.30;;;;;;;14.94;100.00;102172.25;5013639;28;20116;-52
2023/10/15 11:08:23;;;;;;;6.95;1.15;;;;;;;15.94;100.00;102203.59;5028574;28;20403;-49
2023/10/15 11:10:49;;;;;;;8.07;1.20;;;;;;;16.60;100.00;102224.41;5036321;28;20026;-50
2023/10/15 11:13:18;;;;;;;5.88;1.27;;;;;;;16.40;100.00;102155.97;5019218;28;20037;-47
2023/10/15 11:15:44;;;;;;;5.93;1.67;;;;;;;16.23;100.00;102169.84;5030080;28;20038;-48
2023/10/15 11:18:09;;;;;;;3.83;1.23;;;;;;;16.10;100.00;102223.44;5041882;28;20041;-47
2023/10/15 11:20:35;;;;;;;4.28;1.30;;;;;;;16.51;100.00;102227.34;5010683;28;20098;-47
2023/10/15 11:23:03;;;;;;;4.43;1.40;;;;;;;16.98;100.00;102229.22;5029406;28;20518;-49
2023/10/15 11:25:28;;;;;;;5.03;1.38;;;;;;;17.50;100.00;102205.91;5015878;28;20084;-49
2023/10/15 11:27:53;;;;;;;9.85;1.63;;;;;;;18.09;100.00;102224.84;5040361;28;20088;-47
2023/10/15 11:30:21;;;;;;;6.13;1.30;;;;;;;16.97;100.00;102215.94;5015016;28;20046;-51
2023/10/15 11:32:47;;;;;;;7.72;1.10;;;;;;;16.04;100.00;102234.28;5039850;28;20041;-49
2023/10/15 11:35:16;;;;;;;5.22;1.50;;;;;;;16.04;100.00;102235.16;5037284;28;20502;-56